createdAt,value
2018-07-16T00:00:53.103Z,14.33
2018-07-16T00:01:52.710Z,14.31
2018-07-16T00:02:52.834Z,14.31
2018-07-16T00:04:53.072Z,14.16
2018-07-16T00:05:52.638Z,14.15
2018-07-16T00:06:52.617Z,14.19
2018-07-16T00:07:52.908Z,14.13
2018-07-16T00:08:52.735Z,14.18
2018-07-16T00:09:52.570Z,14.15
2018-07-16T00:10:52.714Z,14.11
2018-07-16T00:11:52.535Z,14.18
2018-07-16T00:12:52.855Z,14.19
2018-07-16T00:13:52.513Z,14.15
2018-07-16T00:14:52.844Z,14.23
2018-07-16T00:15:52.478Z,14.23
2018-07-16T00:16:52.461Z,14.27
2018-07-16T00:19:52.471Z,14.12
2018-07-16T00:21:52.693Z,14.22
2018-07-16T00:22:52.378Z,14.19
2018-07-16T00:23:52.363Z,14.09
2018-07-16T00:24:52.347Z,14.15
2018-07-16T00:26:52.312Z,14.16
2018-07-16T00:27:52.347Z,14.18
2018-07-16T00:29:52.565Z,14.15
2018-07-16T00:30:52.249Z,14.15
2018-07-16T00:31:52.233Z,14.12
2018-07-16T00:33:52.257Z,14.01
2018-07-16T00:39:52.461Z,14.08
2018-07-16T00:40:52.102Z,14.03
2018-07-16T00:41:52.078Z,14.08
2018-07-16T00:42:52.066Z,14.01
2018-07-16T00:43:52.075Z,14.03
2018-07-16T00:44:52.036Z,13.96
2018-07-16T00:48:52.124Z,13.88
2018-07-16T00:49:51.958Z,13.83
2018-07-16T00:50:52.040Z,13.82
2018-07-16T00:51:52.604Z,13.85
2018-07-16T00:52:51.908Z,13.83
2018-07-16T00:54:51.877Z,13.73
2018-07-16T00:55:51.881Z,13.82
2018-07-16T00:56:52.151Z,13.71
2018-07-16T00:57:52.138Z,13.76
2018-07-16T00:59:51.874Z,13.63
2018-07-16T01:00:51.786Z,13.60
2018-07-16T01:01:51.792Z,13.54
2018-07-16T01:03:52.577Z,13.49
2018-07-16T01:04:51.724Z,13.45
2018-07-16T01:05:51.760Z,13.45
2018-07-16T01:06:51.699Z,13.46
2018-07-16T01:07:51.682Z,13.46
2018-07-16T01:08:51.674Z,13.36
2018-07-16T01:10:51.940Z,13.36
2018-07-16T01:12:51.648Z,13.40
2018-07-16T01:13:51.585Z,13.39
2018-07-16T01:14:51.566Z,13.42
2018-07-16T01:15:51.685Z,13.35
2018-07-16T01:16:51.548Z,13.46
2018-07-16T01:18:51.858Z,13.43
2018-07-16T01:19:51.491Z,13.42
2018-07-16T01:20:51.474Z,13.42
2018-07-16T01:21:51.459Z,13.55
2018-07-16T01:22:51.448Z,13.45
2018-07-16T01:23:51.434Z,13.45
2018-07-16T01:24:51.465Z,13.42
2018-07-16T01:26:51.688Z,13.39
2018-07-16T01:27:51.368Z,13.49
2018-07-16T01:28:51.345Z,13.51
2018-07-16T01:29:51.341Z,13.46
2018-07-16T01:30:51.362Z,13.45
2018-07-16T01:31:51.297Z,13.53
2018-07-16T01:32:51.285Z,13.49
2018-07-16T01:33:51.670Z,13.43
2018-07-16T01:36:51.311Z,13.39
2018-07-16T01:38:51.184Z,13.36
2018-07-16T01:39:51.175Z,13.32
2018-07-16T01:40:51.514Z,13.29
2018-07-16T01:41:51.141Z,13.20
2018-07-16T01:45:51.077Z,13.05
2018-07-16T01:47:51.178Z,12.86
2018-07-16T01:48:51.129Z,12.81
2018-07-16T01:49:51.019Z,12.79
2018-07-16T01:50:51.052Z,12.76
2018-07-16T01:51:50.978Z,12.79
2018-07-16T01:52:51.272Z,12.76
2018-07-16T01:54:50.979Z,12.86
2018-07-16T01:55:50.930Z,12.90
2018-07-16T01:56:50.980Z,12.95
2018-07-16T01:57:50.908Z,12.81
2018-07-16T01:58:51.175Z,12.86
2018-07-16T01:59:50.853Z,12.91
2018-07-16T02:00:50.956Z,12.93
2018-07-16T02:01:50.921Z,12.88
2018-07-16T02:02:50.857Z,12.83
2018-07-16T02:03:50.834Z,12.86
2018-07-16T02:04:51.685Z,12.93
2018-07-16T02:05:50.859Z,12.90
2018-07-16T02:06:50.825Z,12.88
2018-07-16T02:07:50.741Z,12.91
2018-07-16T02:08:50.773Z,12.95
2018-07-16T02:09:50.773Z,12.84
2018-07-16T02:10:50.978Z,12.83
2018-07-16T02:11:50.667Z,12.84
2018-07-16T02:12:50.768Z,12.73
2018-07-16T02:13:50.626Z,12.77
2018-07-16T02:14:50.721Z,12.79
2018-07-16T02:15:50.643Z,12.73
2018-07-16T02:16:50.878Z,12.81
2018-07-16T02:17:50.701Z,12.81
2018-07-16T02:18:50.559Z,12.88
2018-07-16T02:19:50.527Z,12.87
2018-07-16T02:20:50.665Z,12.93
2018-07-16T02:21:50.495Z,12.91
2018-07-16T02:22:50.823Z,12.95
2018-07-16T02:23:50.476Z,12.88
2018-07-16T02:24:50.515Z,12.87
2018-07-16T02:25:50.485Z,12.88
2018-07-16T02:26:50.462Z,12.98
2018-07-16T02:27:50.403Z,12.86
2018-07-16T02:28:50.381Z,12.83
2018-07-16T02:29:50.830Z,12.90
2018-07-16T02:30:50.347Z,12.81
2018-07-16T02:32:50.506Z,12.72
2018-07-16T02:33:50.301Z,12.73
2018-07-16T02:34:50.402Z,12.72
2018-07-16T02:35:50.282Z,12.76
2018-07-16T02:37:50.539Z,12.79
2018-07-16T02:38:50.268Z,12.73
2018-07-16T02:39:50.207Z,12.77
2018-07-16T02:40:50.189Z,12.71
2018-07-16T02:41:50.221Z,12.73
2018-07-16T02:42:50.152Z,12.72
2018-07-16T02:47:50.435Z,12.71
2018-07-16T02:48:50.718Z,12.65
2018-07-16T02:50:50.022Z,12.77
2018-07-16T02:52:49.994Z,12.58
2018-07-16T02:53:50.024Z,12.55
2018-07-16T02:54:50.257Z,12.50
2018-07-16T02:55:49.950Z,12.54
2018-07-16T02:56:50.491Z,12.51
2018-07-16T02:57:50.606Z,12.47
2018-07-16T02:58:49.890Z,12.41
2018-07-16T02:59:50.037Z,12.29
2018-07-16T03:00:49.854Z,12.32
2018-07-16T03:01:50.145Z,12.32
2018-07-16T03:02:49.982Z,12.29
2018-07-16T03:03:49.859Z,12.32
2018-07-16T03:05:49.827Z,12.18
2018-07-16T03:10:49.993Z,12.33
2018-07-16T03:11:49.732Z,12.35
2018-07-16T03:12:49.663Z,12.43
2018-07-16T03:13:49.642Z,12.38
2018-07-16T03:14:49.629Z,12.29
2018-07-16T03:15:49.615Z,12.28
2018-07-16T03:16:49.968Z,12.38
2018-07-16T03:17:49.625Z,12.38
2018-07-16T03:18:49.614Z,12.36
2018-07-16T03:19:49.592Z,12.28
2018-07-16T03:20:49.535Z,12.32
2018-07-16T03:21:49.530Z,12.33
2018-07-16T03:22:49.917Z,12.28
2018-07-16T03:23:49.538Z,12.46
2018-07-16T03:24:49.459Z,12.36
2018-07-16T03:25:49.451Z,12.46
2018-07-16T03:26:49.426Z,12.41
2018-07-16T03:27:49.430Z,12.46
2018-07-16T03:28:49.712Z,12.40
2018-07-16T03:29:49.430Z,12.44
2018-07-16T03:30:49.361Z,12.51
2018-07-16T03:31:49.343Z,12.54
2018-07-16T03:32:49.327Z,12.48
2018-07-16T03:33:49.315Z,12.48
2018-07-16T03:34:49.604Z,12.61
2018-07-16T03:35:49.336Z,12.61
2018-07-16T03:36:49.262Z,12.50
2018-07-16T03:37:49.249Z,12.48
2018-07-16T03:38:49.234Z,12.46
2018-07-16T03:39:49.230Z,12.50
2018-07-16T03:41:49.574Z,12.46
2018-07-16T03:42:49.184Z,12.44
2018-07-16T03:43:49.148Z,12.44
2018-07-16T03:44:49.133Z,12.51
2018-07-16T03:45:49.280Z,12.46
2018-07-16T03:46:49.098Z,12.47
2018-07-16T03:47:49.399Z,12.47
2018-07-16T03:48:49.062Z,12.47
2018-07-16T03:50:49.027Z,12.44
2018-07-16T03:52:52.034Z,12.53
2018-07-16T03:54:49.263Z,12.43
2018-07-16T03:55:48.991Z,12.44
2018-07-16T03:56:48.935Z,12.41
2018-07-16T03:57:48.919Z,12.46
2018-07-16T03:59:48.934Z,12.43
2018-07-16T04:00:48.986Z,12.50
2018-07-16T04:01:49.259Z,12.33
2018-07-16T04:02:48.858Z,12.29
2018-07-16T04:03:48.868Z,12.32
2018-07-16T04:05:48.945Z,12.15
2018-07-16T04:06:48.778Z,12.32
2018-07-16T04:07:48.761Z,12.35
2018-07-16T04:08:48.748Z,12.38
2018-07-16T04:09:48.720Z,12.30
2018-07-16T04:11:48.747Z,12.43
2018-07-16T04:12:48.665Z,12.46
2018-07-16T04:13:48.728Z,12.44
2018-07-16T04:14:48.946Z,12.32
2018-07-16T04:17:48.645Z,12.46
2018-07-16T04:18:48.623Z,12.55
2018-07-16T04:19:48.716Z,12.46
2018-07-16T04:21:48.874Z,12.58
2018-07-16T04:22:48.602Z,12.59
2018-07-16T04:23:48.542Z,12.65
2018-07-16T04:24:48.506Z,12.73
2018-07-16T04:25:48.463Z,12.73
2018-07-16T04:26:48.539Z,12.65
2018-07-16T04:27:48.461Z,12.65
2018-07-16T04:28:48.704Z,12.63
2018-07-16T04:29:48.441Z,12.72
2018-07-16T04:30:48.381Z,12.69
2018-07-16T04:31:48.627Z,12.72
2018-07-16T04:32:48.349Z,12.73
2018-07-16T04:34:48.623Z,12.76
2018-07-16T04:35:48.342Z,12.83
2018-07-16T04:36:48.276Z,12.81
2018-07-16T04:37:48.287Z,12.91
2018-07-16T04:38:48.253Z,12.87
2018-07-16T04:39:48.319Z,12.91
2018-07-16T04:40:48.207Z,12.90
2018-07-16T04:41:48.629Z,13.01
2018-07-16T04:42:48.174Z,13.06
2018-07-16T04:43:48.173Z,12.99
2018-07-16T04:44:48.144Z,13.05
2018-07-16T04:47:48.446Z,13.23
2018-07-16T04:48:48.079Z,13.29
2018-07-16T04:49:48.077Z,13.35
2018-07-16T04:50:48.051Z,13.46
2018-07-16T04:51:48.113Z,13.49
2018-07-16T04:52:48.019Z,13.46
2018-07-16T04:54:48.509Z,13.63
2018-07-16T04:56:47.961Z,13.79
2018-07-16T04:57:47.955Z,13.85
2018-07-16T04:59:47.904Z,14.00
2018-07-16T05:02:48.162Z,14.09
2018-07-16T05:04:47.830Z,14.21
2018-07-16T05:05:47.810Z,14.21
2018-07-16T05:06:47.845Z,14.30
2018-07-16T05:07:47.774Z,14.33
2018-07-16T05:08:48.187Z,14.31
2018-07-16T05:09:47.865Z,14.48
2018-07-16T05:10:47.742Z,14.53
2018-07-16T05:11:47.716Z,14.56
2018-07-16T05:12:47.846Z,14.78
2018-07-16T05:13:47.762Z,14.86
2018-07-16T05:14:48.074Z,14.95
2018-07-16T05:15:47.660Z,14.95
2018-07-16T05:16:47.710Z,15.08
2018-07-16T05:18:47.728Z,15.12
2018-07-16T05:19:47.646Z,15.35
2018-07-16T05:20:47.926Z,15.44
2018-07-16T05:21:47.628Z,15.40
2018-07-16T05:22:47.554Z,15.48
2018-07-16T05:23:48.091Z,15.59
2018-07-16T05:24:47.785Z,15.66
2018-07-16T05:25:47.572Z,15.70
2018-07-16T05:26:47.501Z,15.70
2018-07-16T05:29:47.889Z,15.73
2018-07-16T05:30:47.531Z,15.87
2018-07-16T05:31:47.482Z,15.81
2018-07-16T05:32:47.549Z,15.90
2018-07-16T05:33:47.491Z,15.95
2018-07-16T05:34:47.641Z,15.91
2018-07-16T05:35:47.359Z,15.93
2018-07-16T05:36:47.969Z,15.95
2018-07-16T05:37:47.330Z,16.05
2018-07-16T05:38:47.383Z,16.05
2018-07-16T05:39:47.313Z,16.06
2018-07-16T05:40:47.311Z,16.24
2018-07-16T05:41:47.398Z,16.21
2018-07-16T05:43:47.557Z,16.24
2018-07-16T05:45:47.233Z,16.40
2018-07-16T05:46:47.364Z,16.43
2018-07-16T05:47:47.246Z,16.59
2018-07-16T05:48:47.203Z,16.62
2018-07-16T05:49:47.223Z,16.61
2018-07-16T05:50:47.514Z,16.59
2018-07-16T05:51:47.144Z,16.73
2018-07-16T05:52:47.127Z,16.74
2018-07-16T05:53:47.335Z,16.76
2018-07-16T05:54:47.222Z,16.79
2018-07-16T05:56:47.466Z,16.95
2018-07-16T05:57:47.136Z,17.06
2018-07-16T05:58:47.117Z,16.97
2018-07-16T06:02:47.647Z,17.13
2018-07-16T06:03:47.183Z,17.17
2018-07-16T06:04:46.969Z,17.28
2018-07-16T06:05:47.075Z,17.27
2018-07-16T06:06:47.051Z,17.34
2018-07-16T06:07:46.925Z,17.37
2018-07-16T06:08:46.985Z,17.41
2018-07-16T06:10:47.234Z,17.46
2018-07-16T06:11:46.880Z,17.38
2018-07-16T06:12:46.858Z,17.47
2018-07-16T06:13:46.858Z,17.47
2018-07-16T06:15:46.870Z,17.65
2018-07-16T06:16:46.848Z,17.65
2018-07-16T06:17:47.098Z,17.63
2018-07-16T06:18:46.876Z,17.84
2018-07-16T06:19:46.766Z,17.79
2018-07-16T06:20:46.763Z,17.94
2018-07-16T06:21:46.796Z,17.91
2018-07-16T06:22:46.736Z,17.97
2018-07-16T06:24:47.002Z,18.11
2018-07-16T06:25:46.699Z,18.15
2018-07-16T06:26:46.703Z,18.09
2018-07-16T06:27:46.758Z,18.17
2018-07-16T06:28:46.679Z,18.12
2018-07-16T06:30:46.934Z,18.13
2018-07-16T06:32:46.672Z,18.26
2018-07-16T06:34:46.626Z,18.31
2018-07-16T06:36:46.983Z,18.42
2018-07-16T06:37:46.537Z,18.42
2018-07-16T06:38:46.520Z,18.52
2018-07-16T06:39:46.627Z,18.66
2018-07-16T06:40:46.861Z,18.67
2018-07-16T06:41:46.499Z,18.76
2018-07-16T06:42:46.774Z,18.85
2018-07-16T06:43:46.471Z,18.89
2018-07-16T06:44:46.451Z,18.98
2018-07-16T06:45:46.443Z,19.08
2018-07-16T06:46:46.479Z,19.17
2018-07-16T06:47:46.484Z,19.22
2018-07-16T06:48:46.697Z,19.24
2018-07-16T06:49:46.395Z,19.31
2018-07-16T06:50:46.373Z,19.37
2018-07-16T06:51:46.401Z,19.39
2018-07-16T06:52:46.403Z,19.57
2018-07-16T06:53:46.368Z,19.56
2018-07-16T06:54:46.666Z,19.67
2018-07-16T06:55:46.394Z,19.71
2018-07-16T06:56:46.305Z,19.81
2018-07-16T06:57:46.416Z,19.87
2018-07-16T06:58:46.330Z,19.93
2018-07-16T06:59:46.388Z,20.02
2018-07-16T07:00:46.250Z,20.04
2018-07-16T07:01:46.544Z,20.08
2018-07-16T07:02:46.230Z,20.09
2018-07-16T07:03:46.221Z,20.11
2018-07-16T07:04:46.414Z,20.09
2018-07-16T07:06:46.187Z,20.15
2018-07-16T07:07:46.472Z,20.29
2018-07-16T07:08:46.161Z,20.27
2018-07-16T07:09:46.149Z,20.44
2018-07-16T07:12:46.857Z,20.56
2018-07-16T07:13:46.098Z,20.50
2018-07-16T07:14:46.136Z,20.61
2018-07-16T07:15:46.079Z,20.70
2018-07-16T07:16:46.832Z,20.73
2018-07-16T07:17:46.050Z,20.73
2018-07-16T07:18:46.119Z,20.85
2018-07-16T07:19:46.786Z,20.89
2018-07-16T07:20:46.418Z,20.88
2018-07-16T07:21:46.274Z,21.05
2018-07-16T07:22:45.993Z,21.03
2018-07-16T07:24:46.431Z,21.20
2018-07-16T07:25:45.966Z,21.18
2018-07-16T07:26:46.252Z,21.37
2018-07-16T07:27:45.957Z,21.47
2018-07-16T07:28:45.946Z,21.55
2018-07-16T07:29:45.913Z,21.62
2018-07-16T07:30:45.969Z,21.53
2018-07-16T07:31:52.609Z,21.66
2018-07-16T07:32:45.889Z,21.73
2018-07-16T07:33:46.251Z,21.78
2018-07-16T07:34:45.861Z,22.11
2018-07-16T07:35:45.969Z,22.22
2018-07-16T07:36:46.072Z,22.30
2018-07-16T07:37:45.826Z,22.34
2018-07-16T07:38:45.818Z,22.48
2018-07-16T07:39:45.811Z,22.53
2018-07-16T07:40:46.100Z,22.70
2018-07-16T07:41:45.787Z,22.88
2018-07-16T07:42:45.821Z,22.89
2018-07-16T07:43:45.768Z,22.96
2018-07-16T07:44:45.758Z,22.96
2018-07-16T07:45:45.742Z,23.10
2018-07-16T07:46:45.737Z,23.22
2018-07-16T07:47:46.084Z,23.28
2018-07-16T07:48:45.764Z,23.42
2018-07-16T07:49:45.719Z,23.54
2018-07-16T07:50:45.689Z,23.70
2018-07-16T07:51:45.685Z,23.74
2018-07-16T07:52:45.676Z,23.88
2018-07-16T07:53:45.986Z,23.91
2018-07-16T07:54:45.802Z,24.03
2018-07-16T07:55:45.676Z,23.86
2018-07-16T07:56:45.652Z,24.10
2018-07-16T07:57:45.639Z,24.38
2018-07-16T07:58:45.622Z,24.47
2018-07-16T07:59:45.954Z,24.45
2018-07-16T08:00:45.671Z,24.55
2018-07-16T08:01:45.650Z,24.58
2018-07-16T08:03:04.851Z,24.53
2018-07-16T08:03:45.569Z,24.68
2018-07-16T08:04:45.612Z,24.56
2018-07-16T08:05:45.850Z,24.71
2018-07-16T08:06:45.584Z,24.74
2018-07-16T08:07:45.531Z,24.85
2018-07-16T08:09:45.510Z,24.71
2018-07-16T08:10:45.589Z,24.76
2018-07-16T08:11:45.792Z,24.82
2018-07-16T08:12:45.540Z,24.96
2018-07-16T08:13:45.567Z,25.04
2018-07-16T08:14:45.471Z,25.14
2018-07-16T08:15:45.478Z,25.21
2018-07-16T08:16:45.453Z,25.22
2018-07-16T08:17:45.805Z,25.43
2018-07-16T08:18:45.550Z,25.56
2018-07-16T08:19:45.453Z,25.59
2018-07-16T08:20:45.429Z,25.43
2018-07-16T08:23:45.702Z,25.59
2018-07-16T08:24:45.448Z,25.66
2018-07-16T08:25:45.400Z,25.64
2018-07-16T08:26:45.372Z,25.43
2018-07-16T08:27:45.365Z,25.58
2018-07-16T08:28:45.362Z,25.63
2018-07-16T08:29:45.653Z,25.78
2018-07-16T08:30:45.406Z,25.88
2018-07-16T08:31:45.369Z,25.75
2018-07-16T08:32:45.329Z,25.96
2018-07-16T08:33:45.382Z,25.85
2018-07-16T08:34:45.329Z,25.89
2018-07-16T08:35:45.613Z,25.95
2018-07-16T08:36:45.351Z,25.86
2018-07-16T08:37:45.291Z,26.03
2018-07-16T08:38:45.303Z,25.89
2018-07-16T08:39:45.304Z,26.04
2018-07-16T08:40:45.729Z,26.10
2018-07-16T08:41:45.279Z,26.36
2018-07-16T08:42:45.618Z,26.52
2018-07-16T08:43:45.287Z,26.41
2018-07-16T08:44:45.260Z,26.11
2018-07-16T08:45:45.278Z,26.28
2018-07-16T08:46:45.293Z,26.36
2018-07-16T08:47:45.233Z,26.38
2018-07-16T08:48:45.288Z,26.39
2018-07-16T08:49:45.632Z,26.51
2018-07-16T08:50:45.224Z,26.56
2018-07-16T08:51:45.251Z,26.70
2018-07-16T08:52:45.643Z,26.88
2018-07-16T08:53:45.459Z,26.93
2018-07-16T08:54:45.245Z,26.86
2018-07-16T08:55:45.534Z,26.75
2018-07-16T08:56:45.412Z,26.86
2018-07-16T08:57:45.192Z,26.79
2018-07-16T08:58:45.182Z,26.98
2018-07-16T08:59:45.221Z,27.04
2018-07-16T09:00:45.233Z,26.95
2018-07-16T09:01:45.200Z,27.16
2018-07-16T09:02:45.515Z,27.20
2018-07-16T09:03:45.223Z,27.35
2018-07-16T09:04:45.246Z,27.38
2018-07-16T09:05:45.171Z,27.35
2018-07-16T09:06:45.238Z,27.49
2018-07-16T09:07:45.164Z,27.44
2018-07-16T09:08:45.157Z,27.27
2018-07-16T09:09:45.437Z,27.42
2018-07-16T09:10:45.221Z,27.42
2018-07-16T09:11:45.278Z,27.57
2018-07-16T09:12:45.192Z,27.72
2018-07-16T09:13:45.177Z,27.66
2018-07-16T09:14:45.135Z,27.90
2018-07-16T09:15:45.413Z,27.93
2018-07-16T09:16:45.135Z,27.90
2018-07-16T09:17:45.107Z,27.19
2018-07-16T09:18:55.517Z,26.93
2018-07-16T09:19:45.108Z,26.56
2018-07-16T09:20:45.098Z,26.67
2018-07-16T09:21:45.917Z,26.65
2018-07-16T09:22:45.089Z,26.78
2018-07-16T09:23:45.093Z,27.10
2018-07-16T09:26:45.429Z,27.61
2018-07-16T09:28:45.422Z,27.88
2018-07-16T09:29:45.084Z,28.00
2018-07-16T09:30:45.375Z,27.57
2018-07-16T09:31:46.317Z,27.00
2018-07-16T09:32:45.206Z,27.17
2018-07-16T09:33:45.124Z,27.53
2018-07-16T09:34:45.441Z,27.73
2018-07-16T09:35:45.053Z,27.68
2018-07-16T09:36:45.056Z,27.85
2018-07-16T09:37:45.306Z,27.87
2018-07-16T09:39:45.181Z,28.20
2018-07-16T09:40:45.432Z,27.75
2018-07-16T09:42:45.058Z,28.24
2018-07-16T09:43:45.044Z,28.69
2018-07-16T09:44:45.133Z,28.84
2018-07-16T09:45:45.096Z,28.66
2018-07-16T09:46:45.338Z,28.87
2018-07-16T09:47:45.043Z,28.80
2018-07-16T09:48:45.030Z,28.40
2018-07-16T09:49:45.028Z,28.74
2018-07-16T09:50:45.083Z,28.80
2018-07-16T09:51:45.080Z,28.91
2018-07-16T09:52:45.325Z,28.87
2018-07-16T09:53:45.124Z,28.43
2018-07-16T09:54:45.032Z,28.01
2018-07-16T09:55:45.033Z,27.57
2018-07-16T09:56:45.031Z,27.60
2018-07-16T09:57:45.082Z,27.78
2018-07-16T09:58:45.325Z,28.06
2018-07-16T09:59:45.261Z,28.40
2018-07-16T10:00:45.022Z,28.66
2018-07-16T10:02:45.017Z,28.43
2018-07-16T10:03:45.100Z,28.62
2018-07-16T10:04:45.329Z,28.93
2018-07-16T10:05:45.131Z,28.98
2018-07-16T10:06:45.014Z,29.34
2018-07-16T10:08:45.023Z,29.73
2018-07-16T10:09:45.071Z,29.50
2018-07-16T10:11:45.318Z,29.95
2018-07-16T10:12:45.023Z,30.21
2018-07-16T10:13:45.014Z,30.20
2018-07-16T10:14:45.023Z,30.39
2018-07-16T10:15:45.087Z,29.58
2018-07-16T10:16:45.023Z,29.70
2018-07-16T10:18:45.326Z,30.65
2018-07-16T10:19:45.017Z,31.02
2018-07-16T10:20:45.084Z,30.49
2018-07-16T10:21:45.080Z,30.33
2018-07-16T10:22:45.046Z,30.39
2018-07-16T10:23:45.038Z,30.11
2018-07-16T10:24:45.341Z,30.10
2018-07-16T10:25:45.155Z,30.10
2018-07-16T10:26:45.082Z,30.62
2018-07-16T10:27:45.120Z,31.26
2018-07-16T10:28:45.089Z,31.66
2018-07-16T10:29:45.174Z,31.86
2018-07-16T10:30:45.342Z,31.94
2018-07-16T10:31:45.063Z,31.98
2018-07-16T10:33:45.200Z,31.86
2018-07-16T10:34:45.086Z,31.66
2018-07-16T10:35:45.099Z,31.67
2018-07-16T10:38:45.462Z,31.74
2018-07-16T10:39:45.113Z,31.71
2018-07-16T10:40:45.124Z,31.87
2018-07-16T10:42:45.124Z,32.21
2018-07-16T10:43:45.069Z,32.08
2018-07-16T10:44:45.620Z,31.81
2018-07-16T10:45:45.333Z,31.74
2018-07-16T10:46:46.770Z,31.71
2018-07-16T10:47:45.269Z,31.70
2018-07-16T10:48:45.213Z,31.14
2018-07-16T10:49:45.369Z,30.86
2018-07-16T10:50:45.300Z,31.04
2018-07-16T10:51:45.654Z,31.46
2018-07-16T10:52:47.062Z,31.75
2018-07-16T10:53:45.242Z,31.99
2018-07-16T10:54:45.175Z,32.35
2018-07-16T10:55:45.241Z,32.53
2018-07-16T10:57:46.677Z,32.20
2018-07-16T10:58:45.212Z,32.19
2018-07-16T10:59:45.644Z,32.17
2018-07-16T11:00:45.402Z,32.08
2018-07-16T11:02:45.195Z,32.16
2018-07-16T11:04:45.621Z,32.21
2018-07-16T11:05:45.244Z,32.51
2018-07-16T11:06:45.657Z,32.21
2018-07-16T11:07:45.479Z,32.01
2018-07-16T11:08:45.235Z,31.99
2018-07-16T11:09:46.274Z,32.01
2018-07-16T11:10:45.523Z,32.45
2018-07-16T11:11:45.253Z,32.64
2018-07-16T11:12:45.296Z,32.80
2018-07-16T11:13:45.204Z,33.07
2018-07-16T11:14:45.252Z,33.24
2018-07-16T11:15:45.282Z,33.07
2018-07-16T11:17:45.325Z,33.29
2018-07-16T11:18:45.356Z,33.47
2018-07-16T11:19:45.207Z,33.17
2018-07-16T11:20:45.279Z,32.21
2018-07-16T11:21:45.277Z,32.11
2018-07-16T11:22:45.654Z,31.79
2018-07-16T11:23:45.331Z,31.64
2018-07-16T11:24:45.311Z,31.75
2018-07-16T11:25:45.311Z,32.11
2018-07-16T11:26:45.209Z,32.31
2018-07-16T11:27:45.254Z,32.85
2018-07-16T11:28:45.976Z,33.22
2018-07-16T11:29:45.327Z,33.27
2018-07-16T11:32:45.245Z,33.41
2018-07-16T11:33:45.267Z,33.49
2018-07-16T11:34:45.308Z,33.57
2018-07-16T11:35:45.710Z,33.78
2018-07-16T11:36:45.334Z,33.95
2018-07-16T11:37:45.254Z,33.76
2018-07-16T11:38:45.265Z,33.57
2018-07-16T11:39:45.323Z,33.79
2018-07-16T11:40:45.194Z,33.74
2018-07-16T11:41:45.595Z,33.93
2018-07-16T11:43:46.174Z,33.91
2018-07-16T11:44:45.315Z,33.93
2018-07-16T11:45:45.280Z,34.16
2018-07-16T11:46:45.209Z,33.54
2018-07-16T11:48:45.519Z,33.67
2018-07-16T11:49:45.227Z,33.91
2018-07-16T11:50:45.485Z,33.85
2018-07-16T11:52:45.360Z,33.88
2018-07-16T11:53:45.520Z,33.58
2018-07-16T11:54:45.794Z,33.42
2018-07-16T11:55:45.341Z,32.90
2018-07-16T11:56:45.261Z,33.13
2018-07-16T11:57:45.412Z,33.03
2018-07-16T11:58:45.410Z,32.36
2018-07-16T12:00:45.731Z,31.84
2018-07-16T12:01:45.348Z,31.95
2018-07-16T12:02:45.389Z,32.58
2018-07-16T12:03:45.410Z,33.03
2018-07-16T12:04:45.352Z,33.44
2018-07-16T12:05:45.371Z,33.85
2018-07-16T12:06:45.721Z,34.04
2018-07-16T12:07:45.357Z,33.76
2018-07-16T12:08:45.335Z,33.73
2018-07-16T12:09:45.372Z,33.57
2018-07-16T12:10:45.358Z,33.85
2018-07-16T12:11:45.296Z,33.98
2018-07-16T12:12:45.652Z,34.10
2018-07-16T12:13:45.359Z,33.91
2018-07-16T12:14:45.336Z,33.26
2018-07-16T12:16:45.327Z,32.50
2018-07-16T12:17:45.561Z,31.91
2018-07-16T12:18:45.651Z,31.79
2018-07-16T12:19:45.323Z,32.45
2018-07-16T12:20:45.331Z,32.57
2018-07-16T12:21:45.410Z,32.82
2018-07-16T12:22:45.383Z,33.16
2018-07-16T12:23:45.343Z,33.16
2018-07-16T12:24:45.700Z,33.24
2018-07-16T12:25:45.357Z,32.94
2018-07-16T12:27:45.429Z,33.10
2018-07-16T12:28:45.376Z,33.32
2018-07-16T12:29:45.362Z,33.55
2018-07-16T12:31:45.391Z,34.10
2018-07-16T12:32:45.451Z,34.26
2018-07-16T12:33:45.421Z,34.35
2018-07-16T12:34:45.486Z,34.11
2018-07-16T12:35:45.384Z,34.01
2018-07-16T12:36:45.698Z,34.01
2018-07-16T12:37:45.387Z,33.60
2018-07-16T12:38:45.401Z,33.44
2018-07-16T12:39:45.445Z,33.69
2018-07-16T12:40:45.431Z,33.86
2018-07-16T12:41:45.490Z,34.06
2018-07-16T12:42:45.765Z,34.78
2018-07-16T12:43:45.529Z,34.94
2018-07-16T12:44:45.420Z,35.19
2018-07-16T12:45:45.931Z,35.17
2018-07-16T12:46:45.519Z,35.21
2018-07-16T12:47:45.421Z,35.16
2018-07-16T12:48:46.919Z,35.29
2018-07-16T12:49:45.524Z,35.26
2018-07-16T12:51:45.505Z,35.09
2018-07-16T12:53:45.717Z,35.53
2018-07-16T12:54:45.774Z,35.60
2018-07-16T12:55:45.515Z,35.41
2018-07-16T12:56:45.564Z,34.90
2018-07-16T12:57:45.551Z,35.02
2018-07-16T12:58:45.532Z,35.53
2018-07-16T12:59:45.481Z,35.68
2018-07-16T13:00:45.795Z,35.88
2018-07-16T13:02:45.500Z,35.39
2018-07-16T13:04:45.569Z,35.36
2018-07-16T13:05:45.522Z,35.47
2018-07-16T13:06:45.893Z,35.28
2018-07-16T13:07:45.594Z,35.19
2018-07-16T13:08:45.535Z,35.12
2018-07-16T13:09:45.598Z,34.99
2018-07-16T13:10:45.619Z,35.31
2018-07-16T13:11:45.589Z,35.48
2018-07-16T13:12:45.863Z,35.51
2018-07-16T13:13:45.743Z,35.32
2018-07-16T13:14:45.578Z,35.38
2018-07-16T13:15:45.602Z,35.41
2018-07-16T13:16:45.709Z,35.38
2018-07-16T13:18:45.996Z,35.29
2018-07-16T13:19:45.793Z,35.17
2018-07-16T13:20:45.720Z,35.35
2018-07-16T13:21:45.653Z,35.23
2018-07-16T13:22:45.675Z,34.99
2018-07-16T13:23:45.787Z,34.80
2018-07-16T13:24:46.043Z,34.57
2018-07-16T13:26:45.651Z,34.50
2018-07-16T13:27:45.703Z,34.60
2018-07-16T13:28:45.703Z,34.72
2018-07-16T13:29:45.801Z,34.78
2018-07-16T13:30:46.048Z,34.91
2018-07-16T13:31:45.772Z,35.02
2018-07-16T13:32:45.768Z,34.63
2018-07-16T13:33:45.781Z,34.91
2018-07-16T13:34:45.805Z,35.26
2018-07-16T13:35:45.784Z,35.16
2018-07-16T13:36:46.891Z,35.12
2018-07-16T13:37:45.823Z,34.62
2018-07-16T13:38:45.850Z,34.78
2018-07-16T13:39:45.719Z,34.97
2018-07-16T13:40:45.780Z,34.98
2018-07-16T13:41:45.728Z,35.32
2018-07-16T13:42:46.038Z,35.68
2018-07-16T13:45:45.811Z,35.70
2018-07-16T13:46:45.863Z,35.83
2018-07-16T13:47:45.879Z,35.53
2018-07-16T13:48:46.143Z,35.53
2018-07-16T13:49:45.781Z,35.36
2018-07-16T13:50:45.799Z,35.44
2018-07-16T13:51:45.788Z,35.31
2018-07-16T13:52:45.918Z,35.47
2018-07-16T13:53:45.804Z,34.78
2018-07-16T13:54:46.109Z,33.71
2018-07-16T13:55:45.846Z,34.18
2018-07-16T13:56:45.822Z,34.32
2018-07-16T13:58:45.884Z,35.14
2018-07-16T13:59:45.854Z,35.38
2018-07-16T14:00:46.408Z,35.68
2018-07-16T14:01:45.888Z,35.68
2018-07-16T14:02:45.941Z,35.28
2018-07-16T14:03:45.944Z,35.21
2018-07-16T14:04:45.934Z,34.48
2018-07-16T14:05:45.906Z,33.67
2018-07-16T14:06:46.184Z,32.70
2018-07-16T14:07:45.903Z,32.01
2018-07-16T14:08:45.909Z,32.54
2018-07-16T14:09:45.901Z,33.33
2018-07-16T14:11:46.136Z,34.37
2018-07-16T14:13:46.213Z,33.30
2018-07-16T14:14:46.067Z,32.70
2018-07-16T14:15:45.963Z,32.01
2018-07-16T14:16:45.933Z,31.75
2018-07-16T14:17:45.977Z,31.17
2018-07-16T14:18:45.938Z,30.75
2018-07-16T14:19:46.296Z,30.29
2018-07-16T14:20:45.947Z,29.99
2018-07-16T14:22:46.070Z,29.62
2018-07-16T14:24:46.051Z,29.62
2018-07-16T14:25:47.003Z,29.54
2018-07-16T14:26:45.955Z,30.28
2018-07-16T14:27:46.019Z,31.39
2018-07-16T14:28:45.958Z,32.27
2018-07-16T14:29:45.954Z,32.97
2018-07-16T14:31:46.356Z,34.00
2018-07-16T14:32:46.076Z,34.25
2018-07-16T14:33:45.952Z,34.29
2018-07-16T14:34:46.062Z,34.55
2018-07-16T14:35:46.064Z,34.07
2018-07-16T14:36:45.999Z,33.33
2018-07-16T14:37:46.379Z,33.36
2018-07-16T14:38:46.479Z,33.57
2018-07-16T14:39:46.110Z,33.29
2018-07-16T14:40:46.052Z,33.64
2018-07-16T14:41:46.076Z,33.97
2018-07-16T14:42:46.076Z,34.06
2018-07-16T14:44:46.388Z,34.23
2018-07-16T14:45:46.045Z,34.40
2018-07-16T14:47:45.983Z,34.83
2018-07-16T14:48:45.986Z,34.76
2018-07-16T14:49:46.034Z,35.10
2018-07-16T14:50:46.355Z,35.02
2018-07-16T14:51:46.007Z,34.70
2018-07-16T14:52:46.033Z,34.66
2018-07-16T14:53:45.996Z,34.79
2018-07-16T14:54:46.010Z,34.55
2018-07-16T14:55:46.013Z,34.59
2018-07-16T14:56:46.364Z,34.35
2018-07-16T14:57:46.020Z,34.59
2018-07-16T14:58:46.026Z,34.40
2018-07-16T14:59:46.019Z,34.67